sensor_id;sensor_type;location;lat;lon;timestamp;P1;durP1;ratioP1;P2;durP2;ratioP2
76296;SDS011;65104;52.994;6.552;2023-06-10T00:00:15;5.68;;;2.70;;
76296;SDS011;65104;52.994;6.552;2023-06-10T00:02:41;7.65;;;3.17;;
76296;SDS011;65104;52.994;6.552;2023-06-10T00:05:07;5.47;;;3.50;;
76296;SDS011;65104;52.994;6.552;2023-06-10T00:07:33;5.40;;;2.85;;
76296;SDS011;65104;52.994;6.552;2023-06-10T00:10:03;6.53;;;2.75;;
76296;SDS011;65104;52.994;6.552;2023-06-10T00:12:30;5.18;;;3.13;;
76296;SDS011;65104;52.994;6.552;2023-06-10T00:15:01;5.63;;;2.58;;
76296;SDS011;65104;52.994;6.552;2023-06-10T00:17:28;5.72;;;2.88;;
76296;SDS011;65104;52.994;6.552;2023-06-10T00:19:54;4.97;;;2.80;;
76296;SDS011;65104;52.994;6.552;2023-06-10T00:22:20;5.22;;;2.95;;
76296;SDS011;65104;52.994;6.552;2023-06-10T00:24:47;4.32;;;2.53;;
76296;SDS011;65104;52.994;6.552;2023-06-10T00:27:12;6.78;;;3.10;;
76296;SDS011;65104;52.994;6.552;2023-06-10T00:29:38;4.38;;;2.70;;
76296;SDS011;65104;52.994;6.552;2023-06-10T00:32:04;5.43;;;2.80;;
76296;SDS011;65104;52.994;6.552;2023-06-10T00:34:29;5.88;;;3.08;;
76296;SDS011;65104;52.994;6.552;2023-06-10T00:36:55;5.57;;;3.28;;
76296;SDS011;65104;52.994;6.552;2023-06-10T00:39:20;4.75;;;2.85;;
76296;SDS011;65104;52.994;6.552;2023-06-10T00:41:45;5.22;;;2.90;;
76296;SDS011;65104;52.994;6.552;2023-06-10T00:44:11;6.63;;;2.78;;
76296;SDS011;65104;52.994;6.552;2023-06-10T00:46:36;5.15;;;3.25;;
76296;SDS011;65104;52.994;6.552;2023-06-10T00:49:03;5.40;;;3.03;;
76296;SDS011;65104;52.994;6.552;2023-06-10T00:51:29;5.50;;;3.00;;
76296;SDS011;65104;52.994;6.552;2023-06-10T00:53:54;6.15;;;3.67;;
76296;SDS011;65104;52.994;6.552;2023-06-10T00:56:21;6.57;;;3.20;;
76296;SDS011;65104;52.994;6.552;2023-06-10T00:58:47;6.47;;;2.88;;
76296;SDS011;65104;52.994;6.552;2023-06-10T01:01:13;7.05;;;3.50;;
76296;SDS011;65104;52.994;6.552;2023-06-10T01:03:39;5.57;;;3.00;;
76296;SDS011;65104;52.994;6.552;2023-06-10T01:09:32;6.05;;;3.05;;
76296;SDS011;65104;52.994;6.552;2023-06-10T01:11:36;4.22;;;2.38;;
76296;SDS011;65104;52.994;6.552;2023-06-10T01:14:10;4.60;;;2.97;;
76296;SDS011;65104;52.994;6.552;2023-06-10T01:16:35;8.55;;;3.28;;
76296;SDS011;65104;52.994;6.552;2023-06-10T01:19:02;4.88;;;3.33;;
76296;SDS011;65104;52.994;6.552;2023-06-10T01:21:28;5.03;;;2.80;;
76296;SDS011;65104;52.994;6.552;2023-06-10T01:23:54;5.60;;;3.63;;
76296;SDS011;65104;52.994;6.552;2023-06-10T01:26:22;3.70;;;2.35;;
76296;SDS011;65104;52.994;6.552;2023-06-10T01:34:03;3.92;;;2.92;;
76296;SDS011;65104;52.994;6.552;2023-06-10T01:36:39;3.58;;;2.97;;
76296;SDS011;65104;52.994;6.552;2023-06-10T01:39:06;5.78;;;3.65;;
76296;SDS011;65104;52.994;6.552;2023-06-10T01:41:33;5.70;;;3.17;;
76296;SDS011;65104;52.994;6.552;2023-06-10T01:44:00;5.25;;;3.00;;
76296;SDS011;65104;52.994;6.552;2023-06-10T01:46:25;5.38;;;2.78;;
76296;SDS011;65104;52.994;6.552;2023-06-10T01:48:50;5.65;;;3.03;;
76296;SDS011;65104;52.994;6.552;2023-06-10T01:51:16;5.95;;;4.07;;
76296;SDS011;65104;52.994;6.552;2023-06-10T01:53:41;5.43;;;3.50;;
76296;SDS011;65104;52.994;6.552;2023-06-10T01:56:07;6.65;;;3.72;;
76296;SDS011;65104;52.994;6.552;2023-06-10T01:58:32;6.70;;;3.33;;
76296;SDS011;65104;52.994;6.552;2023-06-10T02:00:57;4.82;;;2.80;;
76296;SDS011;65104;52.994;6.552;2023-06-10T02:03:23;5.28;;;2.95;;
76296;SDS011;65104;52.994;6.552;2023-06-10T02:05:48;5.65;;;3.53;;
76296;SDS011;65104;52.994;6.552;2023-06-10T02:08:14;5.47;;;3.28;;
76296;SDS011;65104;52.994;6.552;2023-06-10T02:10:39;5.03;;;3.22;;
76296;SDS011;65104;52.994;6.552;2023-06-10T02:13:05;6.55;;;3.63;;
76296;SDS011;65104;52.994;6.552;2023-06-10T02:15:31;4.82;;;2.95;;
76296;SDS011;65104;52.994;6.552;2023-06-10T02:17:56;4.70;;;3.80;;
76296;SDS011;65104;52.994;6.552;2023-06-10T02:20:22;7.38;;;3.53;;
76296;SDS011;65104;52.994;6.552;2023-06-10T02:22:48;7.25;;;2.88;;
76296;SDS011;65104;52.994;6.552;2023-06-10T02:25:13;5.63;;;3.00;;
76296;SDS011;65104;52.994;6.552;2023-06-10T02:27:39;5.80;;;3.15;;
76296;SDS011;65104;52.994;6.552;2023-06-10T02:30:04;5.82;;;3.30;;
76296;SDS011;65104;52.994;6.552;2023-06-10T02:32:30;7.97;;;3.55;;
76296;SDS011;65104;52.994;6.552;2023-06-10T02:34:56;3.92;;;2.72;;
76296;SDS011;65104;52.994;6.552;2023-06-10T02:37:21;5.30;;;3.10;;
76296;SDS011;65104;52.994;6.552;2023-06-10T02:39:47;5.05;;;3.08;;
76296;SDS011;65104;52.994;6.552;2023-06-10T02:42:12;4.55;;;2.90;;
76296;SDS011;65104;52.994;6.552;2023-06-10T02:44:37;6.57;;;3.15;;
76296;SDS011;65104;52.994;6.552;2023-06-10T02:47:03;5.32;;;3.58;;
76296;SDS011;65104;52.994;6.552;2023-06-10T02:49:29;6.53;;;3.42;;
76296;SDS011;65104;52.994;6.552;2023-06-10T02:51:54;5.50;;;3.30;;
76296;SDS011;65104;52.994;6.552;2023-06-10T02:54:21;6.55;;;3.33;;
76296;SDS011;65104;52.994;6.552;2023-06-10T02:56:50;7.03;;;3.22;;
76296;SDS011;65104;52.994;6.552;2023-06-10T02:59:16;6.90;;;3.03;;
76296;SDS011;65104;52.994;6.552;2023-06-10T03:01:42;7.57;;;2.95;;
76296;SDS011;65104;52.994;6.552;2023-06-10T03:04:07;5.32;;;3.22;;
76296;SDS011;65104;52.994;6.552;2023-06-10T03:06:33;5.15;;;2.83;;
76296;SDS011;65104;52.994;6.552;2023-06-10T03:09:00;10.82;;;4.85;;
76296;SDS011;65104;52.994;6.552;2023-06-10T03:11:26;4.53;;;2.97;;
76296;SDS011;65104;52.994;6.552;2023-06-10T03:13:51;7.10;;;3.50;;
76296;SDS011;65104;52.994;6.552;2023-06-10T03:16:18;6.13;;;3.58;;
76296;SDS011;65104;52.994;6.552;2023-06-10T03:18:44;6.50;;;3.40;;
76296;SDS011;65104;52.994;6.552;2023-06-10T03:21:09;7.13;;;3.95;;
76296;SDS011;65104;52.994;6.552;2023-06-10T03:23:35;5.82;;;3.10;;
76296;SDS011;65104;52.994;6.552;2023-06-10T03:26:02;4.25;;;3.42;;
76296;SDS011;65104;52.994;6.552;2023-06-10T03:28:27;7.20;;;3.92;;
76296;SDS011;65104;52.994;6.552;2023-06-10T03:30:52;4.95;;;3.03;;
76296;SDS011;65104;52.994;6.552;2023-06-10T03:33:18;8.95;;;3.20;;
76296;SDS011;65104;52.994;6.552;2023-06-10T03:35:43;7.10;;;3.42;;
76296;SDS011;65104;52.994;6.552;2023-06-10T03:38:09;8.45;;;3.65;;
76296;SDS011;65104;52.994;6.552;2023-06-10T03:40:34;8.18;;;3.40;;
76296;SDS011;65104;52.994;6.552;2023-06-10T03:43:00;6.03;;;3.25;;
76296;SDS011;65104;52.994;6.552;2023-06-10T03:45:25;7.40;;;4.10;;
76296;SDS011;65104;52.994;6.552;2023-06-10T03:47:53;6.45;;;2.97;;
76296;SDS011;65104;52.994;6.552;2023-06-10T03:50:18;6.68;;;3.17;;
76296;SDS011;65104;52.994;6.552;2023-06-10T03:52:44;8.75;;;3.60;;
76296;SDS011;65104;52.994;6.552;2023-06-10T03:55:10;3.95;;;2.85;;
76296;SDS011;65104;52.994;6.552;2023-06-10T03:57:38;5.68;;;3.45;;
76296;SDS011;65104;52.994;6.552;2023-06-10T04:00:04;4.35;;;3.53;;
76296;SDS011;65104;52.994;6.552;2023-06-10T04:02:37;7.10;;;3.10;;
76296;SDS011;65104;52.994;6.552;2023-06-10T04:05:10;5.68;;;3.67;;
76296;SDS011;65104;52.994;6.552;2023-06-10T04:07:36;6.38;;;3.60;;
76296;SDS011;65104;52.994;6.552;2023-06-10T04:10:02;6.03;;;3.40;;
76296;SDS011;65104;52.994;6.552;2023-06-10T04:12:28;7.40;;;3.53;;
76296;SDS011;65104;52.994;6.552;2023-06-10T04:14:53;6.90;;;3.72;;
76296;SDS011;65104;52.994;6.552;2023-06-10T04:17:18;5.65;;;3.70;;
76296;SDS011;65104;52.994;6.552;2023-06-10T04:19:44;6.97;;;3.80;;
76296;SDS011;65104;52.994;6.552;2023-06-10T04:22:09;5.65;;;3.08;;
76296;SDS011;65104;52.994;6.552;2023-06-10T04:24:34;5.65;;;3.10;;
76296;SDS011;65104;52.994;6.552;2023-06-10T04:27:00;7.05;;;3.92;;
76296;SDS011;65104;52.994;6.552;2023-06-10T04:29:26;7.05;;;3.58;;
76296;SDS011;65104;52.994;6.552;2023-06-10T04:31:51;5.18;;;3.08;;
76296;SDS011;65104;52.994;6.552;2023-06-10T04:34:16;6.80;;;3.65;;
76296;SDS011;65104;52.994;6.552;2023-06-10T04:36:42;9.18;;;3.90;;
76296;SDS011;65104;52.994;6.552;2023-06-10T04:39:07;5.85;;;3.50;;
76296;SDS011;65104;52.994;6.552;2023-06-10T04:41:32;6.20;;;3.95;;
76296;SDS011;65104;52.994;6.552;2023-06-10T04:43:58;7.82;;;3.45;;
76296;SDS011;65104;52.994;6.552;2023-06-10T04:46:23;7.32;;;4.05;;
76296;SDS011;65104;52.994;6.552;2023-06-10T04:48:49;6.28;;;3.75;;
76296;SDS011;65104;52.994;6.552;2023-06-10T04:51:14;7.20;;;3.60;;
76296;SDS011;65104;52.994;6.552;2023-06-10T04:53:40;5.63;;;3.92;;
76296;SDS011;65104;52.994;6.552;2023-06-10T04:56:05;6.80;;;3.70;;
76296;SDS011;65104;52.994;6.552;2023-06-10T04:58:32;7.10;;;3.95;;
76296;SDS011;65104;52.994;6.552;2023-06-10T05:00:58;4.68;;;3.30;;
76296;SDS011;65104;52.994;6.552;2023-06-10T05:03:24;6.70;;;3.20;;
76296;SDS011;65104;52.994;6.552;2023-06-10T05:05:50;6.53;;;3.92;;
76296;SDS011;65104;52.994;6.552;2023-06-10T05:08:15;7.65;;;3.60;;
76296;SDS011;65104;52.994;6.552;2023-06-10T05:10:40;9.02;;;3.72;;
76296;SDS011;65104;52.994;6.552;2023-06-10T05:13:06;4.57;;;3.33;;
76296;SDS011;65104;52.994;6.552;2023-06-10T05:15:31;11.38;;;4.25;;
76296;SDS011;65104;52.994;6.552;2023-06-10T05:17:57;8.38;;;4.32;;
76296;SDS011;65104;52.994;6.552;2023-06-10T05:20:27;7.07;;;4.07;;
76296;SDS011;65104;52.994;6.552;2023-06-10T05:22:53;10.68;;;4.10;;
76296;SDS011;65104;52.994;6.552;2023-06-10T05:25:19;7.28;;;4.07;;
76296;SDS011;65104;52.994;6.552;2023-06-10T05:27:44;8.40;;;4.80;;
76296;SDS011;65104;52.994;6.552;2023-06-10T05:30:10;8.75;;;4.28;;
76296;SDS011;65104;52.994;6.552;2023-06-10T05:32:36;7.63;;;4.18;;
76296;SDS011;65104;52.994;6.552;2023-06-10T05:35:01;8.15;;;3.90;;
76296;SDS011;65104;52.994;6.552;2023-06-10T05:37:28;9.20;;;4.65;;
76296;SDS011;65104;52.994;6.552;2023-06-10T05:39:54;6.70;;;3.72;;
76296;SDS011;65104;52.994;6.552;2023-06-10T05:42:19;7.55;;;4.30;;
76296;SDS011;65104;52.994;6.552;2023-06-10T05:44:44;7.32;;;4.38;;
76296;SDS011;65104;52.994;6.552;2023-06-10T05:47:10;9.02;;;4.28;;
76296;SDS011;65104;52.994;6.552;2023-06-10T05:49:35;6.60;;;3.90;;
76296;SDS011;65104;52.994;6.552;2023-06-10T05:52:00;6.10;;;3.97;;
76296;SDS011;65104;52.994;6.552;2023-06-10T05:54:26;9.25;;;4.00;;
76296;SDS011;65104;52.994;6.552;2023-06-10T05:56:51;7.28;;;3.90;;
76296;SDS011;65104;52.994;6.552;2023-06-10T05:59:17;8.13;;;4.03;;
76296;SDS011;65104;52.994;6.552;2023-06-10T06:01:42;6.82;;;4.28;;
76296;SDS011;65104;52.994;6.552;2023-06-10T06:04:08;5.95;;;3.80;;
76296;SDS011;65104;52.994;6.552;2023-06-10T06:06:34;6.20;;;3.60;;
76296;SDS011;65104;52.994;6.552;2023-06-10T06:09:00;9.02;;;4.20;;
76296;SDS011;65104;52.994;6.552;2023-06-10T06:11:25;7.65;;;4.15;;
76296;SDS011;65104;52.994;6.552;2023-06-10T06:13:51;5.38;;;3.65;;
76296;SDS011;65104;52.994;6.552;2023-06-10T06:16:16;8.10;;;3.85;;
76296;SDS011;65104;52.994;6.552;2023-06-10T06:18:43;8.40;;;4.20;;
76296;SDS011;65104;52.994;6.552;2023-06-10T06:21:09;5.65;;;3.58;;
76296;SDS011;65104;52.994;6.552;2023-06-10T06:23:34;7.72;;;4.53;;
76296;SDS011;65104;52.994;6.552;2023-06-10T06:25:59;8.98;;;3.90;;
76296;SDS011;65104;52.994;6.552;2023-06-10T06:28:25;5.55;;;3.63;;
76296;SDS011;65104;52.994;6.552;2023-06-10T06:30:54;9.38;;;3.85;;
76296;SDS011;65104;52.994;6.552;2023-06-10T06:33:20;8.70;;;4.38;;
76296;SDS011;65104;52.994;6.552;2023-06-10T06:35:45;5.70;;;3.67;;
76296;SDS011;65104;52.994;6.552;2023-06-10T06:38:11;7.07;;;3.50;;
76296;SDS011;65104;52.994;6.552;2023-06-10T06:40:36;8.57;;;4.50;;
76296;SDS011;65104;52.994;6.552;2023-06-10T06:43:02;4.35;;;3.20;;
76296;SDS011;65104;52.994;6.552;2023-06-10T06:45:27;4.60;;;3.63;;
76296;SDS011;65104;52.994;6.552;2023-06-10T06:47:52;5.82;;;3.65;;
76296;SDS011;65104;52.994;6.552;2023-06-10T06:50:18;7.88;;;4.80;;
76296;SDS011;65104;52.994;6.552;2023-06-10T06:52:44;6.82;;;4.00;;
76296;SDS011;65104;52.994;6.552;2023-06-10T06:55:09;5.97;;;3.40;;
76296;SDS011;65104;52.994;6.552;2023-06-10T06:57:35;6.88;;;3.67;;
76296;SDS011;65104;52.994;6.552;2023-06-10T07:00:01;9.82;;;4.30;;
76296;SDS011;65104;52.994;6.552;2023-06-10T07:02:27;6.28;;;3.80;;
76296;SDS011;65104;52.994;6.552;2023-06-10T07:04:52;6.53;;;4.05;;
76296;SDS011;65104;52.994;6.552;2023-06-10T07:07:20;7.30;;;4.00;;
76296;SDS011;65104;52.994;6.552;2023-06-10T07:09:46;6.40;;;4.03;;
76296;SDS011;65104;52.994;6.552;2023-06-10T07:12:11;7.20;;;4.30;;
76296;SDS011;65104;52.994;6.552;2023-06-10T07:14:37;6.78;;;3.53;;
76296;SDS011;65104;52.994;6.552;2023-06-10T07:17:02;7.10;;;4.15;;
76296;SDS011;65104;52.994;6.552;2023-06-10T07:19:28;6.30;;;3.70;;
76296;SDS011;65104;52.994;6.552;2023-06-10T07:21:53;5.53;;;3.58;;
76296;SDS011;65104;52.994;6.552;2023-06-10T07:24:19;7.20;;;3.50;;
76296;SDS011;65104;52.994;6.552;2023-06-10T07:26:45;8.18;;;4.28;;
76296;SDS011;65104;52.994;6.552;2023-06-10T07:29:10;7.38;;;3.60;;
76296;SDS011;65104;52.994;6.552;2023-06-10T07:31:36;5.95;;;3.95;;
76296;SDS011;65104;52.994;6.552;2023-06-10T07:34:01;6.50;;;3.38;;
76296;SDS011;65104;52.994;6.552;2023-06-10T07:36:26;6.70;;;3.35;;
76296;SDS011;65104;52.994;6.552;2023-06-10T07:38:53;5.43;;;3.20;;
76296;SDS011;65104;52.994;6.552;2023-06-10T07:41:19;6.93;;;3.08;;
76296;SDS011;65104;52.994;6.552;2023-06-10T07:43:45;4.82;;;3.50;;
76296;SDS011;65104;52.994;6.552;2023-06-10T07:46:10;6.85;;;4.05;;
76296;SDS011;65104;52.994;6.552;2023-06-10T07:48:36;4.60;;;3.42;;
76296;SDS011;65104;52.994;6.552;2023-06-10T07:51:01;5.43;;;3.33;;
76296;SDS011;65104;52.994;6.552;2023-06-10T07:53:27;5.07;;;3.13;;
76296;SDS011;65104;52.994;6.552;2023-06-10T07:55:53;4.78;;;3.28;;
76296;SDS011;65104;52.994;6.552;2023-06-10T07:58:19;4.55;;;3.20;;
76296;SDS011;65104;52.994;6.552;2023-06-10T08:00:44;5.25;;;3.20;;
76296;SDS011;65104;52.994;6.552;2023-06-10T08:03:09;5.28;;;3.35;;
76296;SDS011;65104;52.994;6.552;2023-06-10T08:05:35;6.47;;;3.17;;
76296;SDS011;65104;52.994;6.552;2023-06-10T08:08:00;5.15;;;3.08;;
76296;SDS011;65104;52.994;6.552;2023-06-10T08:10:25;5.53;;;3.20;;
76296;SDS011;65104;52.994;6.552;2023-06-10T08:12:51;5.50;;;3.33;;
76296;SDS011;65104;52.994;6.552;2023-06-10T08:15:16;3.75;;;2.97;;
76296;SDS011;65104;52.994;6.552;2023-06-10T08:17:42;5.97;;;3.17;;
76296;SDS011;65104;52.994;6.552;2023-06-10T08:20:07;5.03;;;3.08;;
76296;SDS011;65104;52.994;6.552;2023-06-10T08:22:33;6.50;;;3.17;;
76296;SDS011;65104;52.994;6.552;2023-06-10T08:24:58;6.35;;;3.00;;
76296;SDS011;65104;52.994;6.552;2023-06-10T08:27:24;5.57;;;3.78;;
76296;SDS011;65104;52.994;6.552;2023-06-10T08:29:50;5.15;;;3.72;;
76296;SDS011;65104;52.994;6.552;2023-06-10T08:32:15;5.97;;;4.15;;
76296;SDS011;65104;52.994;6.552;2023-06-10T08:34:41;8.52;;;3.80;;
76296;SDS011;65104;52.994;6.552;2023-06-10T08:37:06;5.20;;;3.60;;
76296;SDS011;65104;52.994;6.552;2023-06-10T08:39:31;3.63;;;3.28;;
76296;SDS011;65104;52.994;6.552;2023-06-10T08:42:04;4.65;;;3.35;;
76296;SDS011;65104;52.994;6.552;2023-06-10T08:44:36;3.60;;;3.30;;
76296;SDS011;65104;52.994;6.552;2023-06-10T08:47:14;5.97;;;4.10;;
76296;SDS011;65104;52.994;6.552;2023-06-10T08:49:46;5.57;;;3.67;;
76296;SDS011;65104;52.994;6.552;2023-06-10T08:52:15;4.18;;;3.67;;
76296;SDS011;65104;52.994;6.552;2023-06-10T08:54:59;4.80;;;3.33;;
76296;SDS011;65104;52.994;6.552;2023-06-10T08:57:28;6.00;;;3.72;;
76296;SDS011;65104;52.994;6.552;2023-06-10T08:59:56;6.10;;;3.15;;
76296;SDS011;65104;52.994;6.552;2023-06-10T09:02:23;4.70;;;2.70;;
76296;SDS011;65104;52.994;6.552;2023-06-10T09:04:50;3.95;;;2.88;;
76296;SDS011;65104;52.994;6.552;2023-06-10T09:07:16;3.78;;;3.08;;
76296;SDS011;65104;52.994;6.552;2023-06-10T09:09:42;6.75;;;3.15;;
76296;SDS011;65104;52.994;6.552;2023-06-10T09:12:09;4.90;;;2.80;;
76296;SDS011;65104;52.994;6.552;2023-06-10T09:14:35;3.95;;;2.65;;
76296;SDS011;65104;52.994;6.552;2023-06-10T09:17:01;4.88;;;2.95;;
76296;SDS011;65104;52.994;6.552;2023-06-10T09:19:27;4.70;;;2.92;;
76296;SDS011;65104;52.994;6.552;2023-06-10T09:21:53;3.13;;;2.80;;
76296;SDS011;65104;52.994;6.552;2023-06-10T09:24:20;8.98;;;3.13;;
76296;SDS011;65104;52.994;6.552;2023-06-10T09:26:47;4.45;;;2.85;;
76296;SDS011;65104;52.994;6.552;2023-06-10T09:29:12;4.13;;;3.10;;
76296;SDS011;65104;52.994;6.552;2023-06-10T09:31:38;6.30;;;3.17;;
76296;SDS011;65104;52.994;6.552;2023-06-10T09:34:14;6.53;;;3.55;;
76296;SDS011;65104;52.994;6.552;2023-06-10T09:36:42;4.07;;;2.72;;
76296;SDS011;65104;52.994;6.552;2023-06-10T09:39:14;5.43;;;2.75;;
76296;SDS011;65104;52.994;6.552;2023-06-10T09:41:41;3.15;;;2.25;;
76296;SDS011;65104;52.994;6.552;2023-06-10T09:46:39;4.57;;;2.80;;
76296;SDS011;65104;52.994;6.552;2023-06-10T09:49:05;5.22;;;3.03;;
76296;SDS011;65104;52.994;6.552;2023-06-10T09:51:30;3.17;;;2.85;;
76296;SDS011;65104;52.994;6.552;2023-06-10T09:53:56;3.83;;;2.58;;
76296;SDS011;65104;52.994;6.552;2023-06-10T09:56:21;4.55;;;2.70;;
76296;SDS011;65104;52.994;6.552;2023-06-10T09:58:57;4.30;;;2.40;;
76296;SDS011;65104;52.994;6.552;2023-06-10T10:01:23;4.00;;;2.70;;
76296;SDS011;65104;52.994;6.552;2023-06-10T10:03:49;4.18;;;3.05;;
76296;SDS011;65104;52.994;6.552;2023-06-10T10:08:42;3.38;;;2.47;;
76296;SDS011;65104;52.994;6.552;2023-06-10T10:11:08;3.25;;;2.42;;
76296;SDS011;65104;52.994;6.552;2023-06-10T10:16:10;4.40;;;2.22;;
76296;SDS011;65104;52.994;6.552;2023-06-10T10:18:42;3.55;;;2.40;;
76296;SDS011;65104;52.994;6.552;2023-06-10T10:21:13;2.70;;;2.50;;
76296;SDS011;65104;52.994;6.552;2023-06-10T10:26:46;2.78;;;2.30;;
76296;SDS011;65104;52.994;6.552;2023-06-10T10:31:38;3.22;;;2.25;;
76296;SDS011;65104;52.994;6.552;2023-06-10T10:34:06;3.35;;;2.75;;
76296;SDS011;65104;52.994;6.552;2023-06-10T10:36:34;3.95;;;2.20;;
76296;SDS011;65104;52.994;6.552;2023-06-10T10:39:01;2.28;;;2.08;;
76296;SDS011;65104;52.994;6.552;2023-06-10T10:41:29;2.60;;;2.10;;
76296;SDS011;65104;52.994;6.552;2023-06-10T10:43:56;2.70;;;2.30;;
76296;SDS011;65104;52.994;6.552;2023-06-10T10:48:51;3.60;;;2.00;;
76296;SDS011;65104;52.994;6.552;2023-06-10T10:51:18;3.90;;;2.20;;
76296;SDS011;65104;52.994;6.552;2023-06-10T10:53:43;2.35;;;2.15;;
76296;SDS011;65104;52.994;6.552;2023-06-10T10:56:13;7.13;;;2.67;;
76296;SDS011;65104;52.994;6.552;2023-06-10T10:58:40;2.97;;;2.00;;
76296;SDS011;65104;52.994;6.552;2023-06-10T11:01:24;3.17;;;2.38;;
76296;SDS011;65104;52.994;6.552;2023-06-10T11:03:49;2.70;;;2.45;;
76296;SDS011;65104;52.994;6.552;2023-06-10T11:06:16;3.17;;;1.95;;
76296;SDS011;65104;52.994;6.552;2023-06-10T11:11:25;4.05;;;2.30;;
76296;SDS011;65104;52.994;6.552;2023-06-10T11:16:27;2.40;;;1.98;;
76296;SDS011;65104;52.994;6.552;2023-06-10T11:18:54;3.20;;;1.98;;
76296;SDS011;65104;52.994;6.552;2023-06-10T11:23:46;2.78;;;1.50;;
76296;SDS011;65104;52.994;6.552;2023-06-10T11:31:28;2.35;;;2.10;;
76296;SDS011;65104;52.994;6.552;2023-06-10T11:34:04;2.50;;;2.03;;
76296;SDS011;65104;52.994;6.552;2023-06-10T11:36:31;2.33;;;1.95;;
76296;SDS011;65104;52.994;6.552;2023-06-10T11:39:02;2.42;;;2.10;;
76296;SDS011;65104;52.994;6.552;2023-06-10T11:41:30;2.78;;;2.55;;
76296;SDS011;65104;52.994;6.552;2023-06-10T11:44:04;3.05;;;2.22;;
76296;SDS011;65104;52.994;6.552;2023-06-10T11:46:33;3.28;;;2.17;;
76296;SDS011;65104;52.994;6.552;2023-06-10T11:48:59;4.55;;;2.17;;
76296;SDS011;65104;52.994;6.552;2023-06-10T11:51:25;2.97;;;2.45;;
76296;SDS011;65104;52.994;6.552;2023-06-10T11:53:52;3.20;;;2.13;;
76296;SDS011;65104;52.994;6.552;2023-06-10T11:56:21;3.63;;;2.25;;
76296;SDS011;65104;52.994;6.552;2023-06-10T11:58:52;2.60;;;2.05;;
76296;SDS011;65104;52.994;6.552;2023-06-10T12:01:20;2.00;;;1.90;;
76296;SDS011;65104;52.994;6.552;2023-06-10T12:03:59;3.35;;;2.00;;
76296;SDS011;65104;52.994;6.552;2023-06-10T12:06:25;2.92;;;2.00;;
76296;SDS011;65104;52.994;6.552;2023-06-10T12:08:51;2.97;;;1.80;;
76296;SDS011;65104;52.994;6.552;2023-06-10T12:11:16;2.13;;;1.80;;
76296;SDS011;65104;52.994;6.552;2023-06-10T12:13:46;3.40;;;1.90;;
76296;SDS011;65104;52.994;6.552;2023-06-10T12:16:15;2.88;;;1.88;;
76296;SDS011;65104;52.994;6.552;2023-06-10T12:18:45;3.13;;;1.80;;
76296;SDS011;65104;52.994;6.552;2023-06-10T12:21:23;3.42;;;1.88;;
76296;SDS011;65104;52.994;6.552;2023-06-10T12:24:08;2.67;;;2.03;;
76296;SDS011;65104;52.994;6.552;2023-06-10T12:26:35;2.78;;;2.03;;
76296;SDS011;65104;52.994;6.552;2023-06-10T12:29:11;2.25;;;2.05;;
76296;SDS011;65104;52.994;6.552;2023-06-10T12:31:54;3.83;;;2.03;;
76296;SDS011;65104;52.994;6.552;2023-06-10T12:34:27;1.88;;;1.63;;
76296;SDS011;65104;52.994;6.552;2023-06-10T12:36:54;3.78;;;2.10;;
76296;SDS011;65104;52.994;6.552;2023-06-10T12:39:19;3.05;;;2.05;;
76296;SDS011;65104;52.994;6.552;2023-06-10T12:41:48;2.47;;;1.80;;
76296;SDS011;65104;52.994;6.552;2023-06-10T12:44:14;3.03;;;2.30;;
76296;SDS011;65104;52.994;6.552;2023-06-10T12:46:40;2.78;;;1.80;;
76296;SDS011;65104;52.994;6.552;2023-06-10T12:49:05;3.78;;;2.55;;
76296;SDS011;65104;52.994;6.552;2023-06-10T12:51:31;2.42;;;2.22;;
76296;SDS011;65104;52.994;6.552;2023-06-10T12:53:56;4.53;;;2.47;;
76296;SDS011;65104;52.994;6.552;2023-06-10T12:56:22;3.03;;;2.13;;
76296;SDS011;65104;52.994;6.552;2023-06-10T12:58:47;2.47;;;2.25;;
76296;SDS011;65104;52.994;6.552;2023-06-10T13:01:13;5.03;;;2.38;;
76296;SDS011;65104;52.994;6.552;2023-06-10T13:03:38;2.85;;;2.15;;
76296;SDS011;65104;52.994;6.552;2023-06-10T13:06:05;3.95;;;2.22;;
76296;SDS011;65104;52.994;6.552;2023-06-10T13:08:31;2.35;;;1.67;;
76296;SDS011;65104;52.994;6.552;2023-06-10T13:10:57;3.50;;;2.03;;
76296;SDS011;65104;52.994;6.552;2023-06-10T13:13:23;4.78;;;2.35;;
76296;SDS011;65104;52.994;6.552;2023-06-10T13:15:48;3.40;;;1.95;;
76296;SDS011;65104;52.994;6.552;2023-06-10T13:18:15;3.92;;;2.08;;
76296;SDS011;65104;52.994;6.552;2023-06-10T13:20:43;3.47;;;2.17;;
76296;SDS011;65104;52.994;6.552;2023-06-10T13:23:08;3.58;;;2.40;;
76296;SDS011;65104;52.994;6.552;2023-06-10T13:25:33;2.95;;;2.05;;
76296;SDS011;65104;52.994;6.552;2023-06-10T13:27:59;3.33;;;2.20;;
76296;SDS011;65104;52.994;6.552;2023-06-10T13:30:24;2.33;;;2.00;;
76296;SDS011;65104;52.994;6.552;2023-06-10T13:32:51;2.83;;;1.90;;
76296;SDS011;65104;52.994;6.552;2023-06-10T13:35:16;2.22;;;1.80;;
76296;SDS011;65104;52.994;6.552;2023-06-10T13:37:42;2.40;;;1.77;;
76296;SDS011;65104;52.994;6.552;2023-06-10T13:40:07;2.47;;;2.05;;
76296;SDS011;65104;52.994;6.552;2023-06-10T13:42:34;4.90;;;2.60;;
76296;SDS011;65104;52.994;6.552;2023-06-10T13:45:00;3.05;;;2.13;;
76296;SDS011;65104;52.994;6.552;2023-06-10T13:47:26;4.00;;;2.58;;
76296;SDS011;65104;52.994;6.552;2023-06-10T13:49:51;2.72;;;2.22;;
76296;SDS011;65104;52.994;6.552;2023-06-10T13:52:17;3.13;;;2.00;;
76296;SDS011;65104;52.994;6.552;2023-06-10T13:54:43;3.10;;;2.00;;
76296;SDS011;65104;52.994;6.552;2023-06-10T13:57:08;3.30;;;2.22;;
76296;SDS011;65104;52.994;6.552;2023-06-10T13:59:35;2.35;;;2.15;;
76296;SDS011;65104;52.994;6.552;2023-06-10T14:02:01;2.92;;;2.45;;
76296;SDS011;65104;52.994;6.552;2023-06-10T14:04:26;3.28;;;2.10;;
76296;SDS011;65104;52.994;6.552;2023-06-10T14:06:52;5.25;;;2.53;;
76296;SDS011;65104;52.994;6.552;2023-06-10T14:09:17;3.22;;;2.53;;
76296;SDS011;65104;52.994;6.552;2023-06-10T14:11:44;2.75;;;1.90;;
76296;SDS011;65104;52.994;6.552;2023-06-10T14:14:09;2.20;;;2.00;;
76296;SDS011;65104;52.994;6.552;2023-06-10T14:16:40;3.08;;;2.05;;
76296;SDS011;65104;52.994;6.552;2023-06-10T14:19:05;2.70;;;1.90;;
76296;SDS011;65104;52.994;6.552;2023-06-10T14:21:31;2.63;;;1.90;;
76296;SDS011;65104;52.994;6.552;2023-06-10T14:23:56;3.88;;;2.20;;
76296;SDS011;65104;52.994;6.552;2023-06-10T14:26:22;2.75;;;2.00;;
76296;SDS011;65104;52.994;6.552;2023-06-10T14:28:48;2.38;;;2.17;;
76296;SDS011;65104;52.994;6.552;2023-06-10T14:31:14;2.72;;;1.90;;
76296;SDS011;65104;52.994;6.552;2023-06-10T14:33:42;3.90;;;2.00;;
76296;SDS011;65104;52.994;6.552;2023-06-10T14:36:08;2.38;;;1.80;;
76296;SDS011;65104;52.994;6.552;2023-06-10T14:38:38;2.78;;;2.10;;
76296;SDS011;65104;52.994;6.552;2023-06-10T14:41:03;2.85;;;1.98;;
76296;SDS011;65104;52.994;6.552;2023-06-10T14:43:29;4.13;;;1.90;;
76296;SDS011;65104;52.994;6.552;2023-06-10T14:45:54;2.50;;;1.80;;
76296;SDS011;65104;52.994;6.552;2023-06-10T14:50:46;3.85;;;1.92;;
76296;SDS011;65104;52.994;6.552;2023-06-10T14:53:15;2.20;;;1.65;;
76296;SDS011;65104;52.994;6.552;2023-06-10T14:55:44;4.57;;;2.03;;
76296;SDS011;65104;52.994;6.552;2023-06-10T14:58:09;2.13;;;1.88;;
76296;SDS011;65104;52.994;6.552;2023-06-10T15:00:34;2.30;;;2.05;;
76296;SDS011;65104;52.994;6.552;2023-06-10T15:03:00;3.13;;;1.83;;
76296;SDS011;65104;52.994;6.552;2023-06-10T15:05:25;2.83;;;1.80;;
76296;SDS011;65104;52.994;6.552;2023-06-10T15:07:51;2.30;;;1.83;;
76296;SDS011;65104;52.994;6.552;2023-06-10T15:10:16;2.10;;;1.90;;
76296;SDS011;65104;52.994;6.552;2023-06-10T15:12:42;2.88;;;2.00;;
76296;SDS011;65104;52.994;6.552;2023-06-10T15:15:08;2.13;;;1.92;;
76296;SDS011;65104;52.994;6.552;2023-06-10T15:17:34;3.40;;;1.70;;
76296;SDS011;65104;52.994;6.552;2023-06-10T15:19:59;2.00;;;1.80;;
76296;SDS011;65104;52.994;6.552;2023-06-10T15:22:25;3.78;;;3.17;;